Time;durP1;ratioP1;P1;durP2;ratioP2;P2;SDS_P1;SDS_P2;PMS_P1;PMS_P2;Temp;Humidity;BMP_temperature;BMP_pressure;BME280_temperature;BME280_humidity;BME280_pressure;Samples;Min_cycle;Max_cycle;Signal;HPM_P1;HPM_P2
2023/10/04 00:01:46;;;;;;;1.40;1.08;;;25.10;53.10;;;;;;5000518;28;20022;-63
2023/10/04 00:04:12;;;;;;;1.75;1.10;;;25.10;53.10;;;;;;4999493;28;20033;-63
2023/10/04 00:06:41;;;;;;;1.80;1.30;;;25.00;53.10;;;;;;4998630;28;20025;-65
2023/10/04 00:09:09;;;;;;;1.42;1.00;;;25.00;53.10;;;;;;5000236;28;20508;-66
2023/10/04 00:11:35;;;;;;;2.00;1.10;;;25.00;53.10;;;;;;5001276;28;20478;-66
2023/10/04 00:14:01;;;;;;;1.95;1.30;;;25.00;53.10;;;;;;5000751;28;20034;-67
2023/10/04 00:16:26;;;;;;;1.40;1.10;;;25.00;53.10;;;;;;5001957;28;20145;-67
2023/10/04 00:18:54;;;;;;;1.65;1.08;;;25.00;53.10;;;;;;5001155;28;20022;-67
2023/10/04 00:21:20;;;;;;;1.92;1.10;;;25.00;53.10;;;;;;4999659;28;20027;-67
2023/10/04 00:23:46;;;;;;;1.83;1.27;;;25.00;53.20;;;;;;4998338;28;20030;-67
2023/10/04 00:26:11;;;;;;;2.03;1.20;;;25.00;53.10;;;;;;4999396;28;20041;-66
2023/10/04 00:28:40;;;;;;;2.08;1.17;;;25.00;53.20;;;;;;5000669;28;20030;-66
2023/10/04 00:31:06;;;;;;;1.98;1.17;;;25.00;53.20;;;;;;5000131;28;20040;-67
2023/10/04 00:33:32;;;;;;;1.52;1.00;;;25.00;53.20;;;;;;5000961;28;20038;-66
2023/10/04 00:36:04;;;;;;;1.58;1.02;;;24.90;53.10;;;;;;5000421;28;20026;-67
2023/10/04 00:38:31;;;;;;;1.95;1.20;;;24.90;53.10;;;;;;5000006;28;20131;-67
2023/10/04 00:40:56;;;;;;;1.50;1.10;;;24.90;53.20;;;;;;4999032;28;20548;-67
2023/10/04 00:43:23;;;;;;;2.00;1.10;;;24.90;53.10;;;;;;5001096;28;20058;-66
2023/10/04 00:45:50;;;;;;;1.60;1.10;;;24.90;53.20;;;;;;4999745;28;20046;-67
2023/10/04 00:48:34;;;;;;;1.58;1.10;;;24.90;53.20;;;;;;4999188;28;20034;-67
2023/10/04 00:51:00;;;;;;;1.33;1.02;;;24.90;53.20;;;;;;4998385;28;20031;-67
2023/10/04 00:53:26;;;;;;;1.90;1.27;;;24.90;53.20;;;;;;5001347;28;20022;-67
2023/10/04 00:55:56;;;;;;;1.27;1.00;;;24.90;53.20;;;;;;4999633;28;20030;-66
2023/10/04 00:58:23;;;;;;;1.52;1.02;;;24.90;53.20;;;;;;5001893;28;20474;-66
2023/10/04 01:00:49;;;;;;;1.55;1.17;;;24.90;53.20;;;;;;4997528;28;20569;-66
2023/10/04 01:03:19;;;;;;;1.67;1.10;;;24.90;53.20;;;;;;4999704;28;20105;-66
2023/10/04 01:05:47;;;;;;;1.42;0.90;;;24.90;53.20;;;;;;5000024;28;20108;-66
2023/10/04 01:08:21;;;;;;;0.93;0.80;;;24.80;53.20;;;;;;4998648;28;20025;-66
2023/10/04 01:10:49;;;;;;;1.35;0.98;;;24.80;53.20;;;;;;4997308;28;20339;-66
2023/10/04 01:13:19;;;;;;;1.60;1.10;;;24.90;53.20;;;;;;5001627;28;20026;-66
2023/10/04 01:15:44;;;;;;;1.83;1.10;;;24.80;53.20;;;;;;5000715;28;20057;-64
2023/10/04 01:18:12;;;;;;;1.83;1.10;;;24.90;53.30;;;;;;4999085;28;20095;-64
2023/10/04 01:20:39;;;;;;;1.83;1.25;;;24.80;53.20;;;;;;4998332;28;20026;-64
2023/10/04 01:23:06;;;;;;;1.23;0.90;;;24.80;53.70;;;;;;4998444;28;20105;-64
2023/10/04 01:25:38;;;;;;;1.55;1.05;;;24.80;53.20;;;;;;5000070;28;20034;-64
2023/10/04 01:28:07;;;;;;;1.85;1.05;;;24.80;53.20;;;;;;4999322;28;20066;-64
2023/10/04 01:30:33;;;;;;;2.00;1.20;;;24.80;53.20;;;;;;4998184;28;20030;-64
2023/10/04 01:33:07;;;;;;;1.85;1.13;;;24.80;53.30;;;;;;4998960;28;20268;-64
2023/10/04 01:35:33;;;;;;;1.77;1.10;;;24.80;53.30;;;;;;4999876;28;20014;-64
2023/10/04 01:37:59;;;;;;;1.38;0.95;;;24.80;53.30;;;;;;4999598;28;20503;-64
2023/10/04 01:40:26;;;;;;;1.35;1.00;;;24.80;53.30;;;;;;4999073;28;20038;-63
2023/10/04 01:42:55;;;;;;;1.77;1.02;;;24.80;53.30;;;;;;4998592;28;20486;-63
2023/10/04 01:45:22;;;;;;;1.40;1.17;;;24.80;53.30;;;;;;5001210;28;20403;-63
2023/10/04 01:47:50;;;;;;;1.20;0.93;;;24.70;53.30;;;;;;4998347;28;20038;-64
2023/10/04 01:50:16;;;;;;;1.45;1.10;;;24.80;53.30;;;;;;4998359;28;20014;-64
2023/10/04 01:52:49;;;;;;;1.40;1.00;;;24.70;53.30;;;;;;5000147;28;20076;-63
2023/10/04 01:55:17;;;;;;;1.60;1.10;;;24.80;53.40;;;;;;4998617;28;20385;-65
2023/10/04 01:57:43;;;;;;;1.08;0.90;;;24.70;53.30;;;;;;4998984;28;20025;-64
2023/10/04 02:00:10;;;;;;;1.48;0.98;;;24.70;53.30;;;;;;4999815;28;20474;-64
2023/10/04 02:02:39;;;;;;;1.10;0.88;;;24.70;53.40;;;;;;4999353;28;20041;-64
2023/10/04 02:05:15;;;;;;;1.38;1.00;;;24.70;53.40;;;;;;4998694;28;20038;-64
2023/10/04 02:07:41;;;;;;;1.30;0.95;;;24.70;53.40;;;;;;4998155;28;20068;-66
2023/10/04 02:10:09;;;;;;;1.73;1.00;;;24.70;53.40;;;;;;5000226;28;20986;-65
2023/10/04 02:12:35;;;;;;;1.38;1.00;;;24.70;53.40;;;;;;4998847;28;20057;-66
2023/10/04 02:15:01;;;;;;;1.33;1.00;;;24.70;53.40;;;;;;4997399;28;20364;-66
2023/10/04 02:17:27;;;;;;;1.20;1.00;;;24.70;53.40;;;;;;4999314;28;20034;-65
2023/10/04 02:19:53;;;;;;;1.30;1.08;;;24.70;53.40;;;;;;4996424;28;20030;-65
2023/10/04 02:22:20;;;;;;;2.13;1.10;;;24.70;53.40;;;;;;4999769;28;20026;-65
2023/10/04 02:24:47;;;;;;;1.95;1.20;;;24.60;53.40;;;;;;4996669;28;20030;-66
2023/10/04 02:27:16;;;;;;;2.00;1.15;;;24.60;53.40;;;;;;4997216;28;20029;-63
2023/10/04 02:29:44;;;;;;;1.75;1.13;;;24.60;53.40;;;;;;4997263;28;20025;-65
2023/10/04 02:32:10;;;;;;;1.58;1.10;;;24.60;53.50;;;;;;5000439;28;20030;-63
2023/10/04 02:34:38;;;;;;;1.50;1.00;;;24.60;53.40;;;;;;5001682;28;20030;-64
2023/10/04 02:37:07;;;;;;;1.30;1.00;;;24.60;53.40;;;;;;5000613;28;20034;-64
2023/10/04 02:39:37;;;;;;;1.95;1.00;;;24.60;53.40;;;;;;5000142;28;20038;-64
2023/10/04 02:42:09;;;;;;;1.58;1.10;;;24.60;53.50;;;;;;5003385;28;20034;-64
2023/10/04 02:44:37;;;;;;;1.10;0.90;;;24.60;53.40;;;;;;5003089;28;20111;-64
2023/10/04 02:47:08;;;;;;;1.55;1.00;;;24.60;53.40;;;;;;5001306;28;20034;-64
2023/10/04 02:49:38;;;;;;;1.42;1.00;;;24.60;53.50;;;;;;5002544;28;20073;-65
2023/10/04 02:52:06;;;;;;;1.23;1.00;;;24.60;54.00;;;;;;5001884;28;20232;-65
2023/10/04 02:54:33;;;;;;;1.37;1.00;;;24.60;53.50;;;;;;5001539;28;20037;-64
2023/10/04 02:57:00;;;;;;;1.20;1.00;;;24.50;54.00;;;;;;5003511;28;20083;-65
2023/10/04 02:59:26;;;;;;;1.92;1.10;;;24.50;53.40;;;;;;5001817;28;20402;-65
2023/10/04 03:01:53;;;;;;;0.98;0.80;;;24.50;53.40;;;;;;5001443;28;20878;-64
2023/10/04 03:04:20;;;;;;;1.40;0.90;;;24.50;53.50;;;;;;5003313;28;20112;-65
2023/10/04 03:06:46;;;;;;;0.98;0.80;;;24.50;53.40;;;;;;5003804;28;20059;-64
2023/10/04 03:09:12;;;;;;;1.23;0.88;;;24.50;53.50;;;;;;5001641;28;20015;-65
2023/10/04 03:11:41;;;;;;;1.15;0.90;;;24.50;53.50;;;;;;5001217;28;20034;-64
2023/10/04 03:14:07;;;;;;;1.63;1.00;;;24.50;53.50;;;;;;5001942;28;20728;-64
2023/10/04 03:16:34;;;;;;;1.88;1.17;;;24.50;53.50;;;;;;5001391;28;20026;-62
2023/10/04 03:19:00;;;;;;;1.27;0.90;;;24.50;53.50;;;;;;5002165;28;20040;-62
2023/10/04 03:21:31;;;;;;;1.70;1.10;;;24.50;53.50;;;;;;5015897;28;20026;-62
2023/10/04 03:24:03;;;;;;;1.55;1.00;;;24.50;53.50;;;;;;4999948;28;20038;-63
2023/10/04 03:26:29;;;;;;;1.73;1.08;;;24.40;53.50;;;;;;5001952;28;20035;-64
2023/10/04 03:28:54;;;;;;;1.30;0.90;;;24.50;53.50;;;;;;5000568;28;20018;-63
2023/10/04 03:31:20;;;;;;;1.20;1.00;;;24.50;53.60;;;;;;5001783;28;20418;-62
2023/10/04 03:33:48;;;;;;;1.02;0.90;;;24.40;53.50;;;;;;5001449;28;20429;-64
2023/10/04 03:36:21;;;;;;;1.20;0.90;;;24.40;53.50;;;;;;5000386;28;20022;-66
2023/10/04 03:38:49;;;;;;;1.25;1.00;;;24.40;53.50;;;;;;4999771;28;20069;-67
2023/10/04 03:41:16;;;;;;;1.10;0.90;;;24.40;53.50;;;;;;5000797;28;20030;-66
2023/10/04 03:43:42;;;;;;;1.08;0.90;;;24.40;53.50;;;;;;5001739;28;20489;-67
2023/10/04 03:46:18;;;;;;;1.58;1.00;;;24.40;53.50;;;;;;5001638;28;20462;-67
2023/10/04 03:48:48;;;;;;;1.10;0.90;;;24.40;53.50;;;;;;5001382;28;20030;-67
2023/10/04 03:51:15;;;;;;;1.13;0.85;;;24.40;53.50;;;;;;4999748;28;20037;-67
2023/10/04 03:53:43;;;;;;;1.35;0.90;;;24.40;53.50;;;;;;4998548;28;20022;-67
2023/10/04 03:56:10;;;;;;;2.40;1.10;;;24.40;53.60;;;;;;5002236;28;20041;-67
2023/10/04 03:58:36;;;;;;;1.70;1.00;;;24.40;53.60;;;;;;5000141;28;20033;-67
2023/10/04 04:01:03;;;;;;;1.90;1.00;;;24.30;53.50;;;;;;5001983;28;20433;-67
2023/10/04 04:03:30;;;;;;;1.35;1.00;;;24.30;53.50;;;;;;5001240;28;20084;-67
2023/10/04 04:05:56;;;;;;;1.60;1.10;;;24.40;53.60;;;;;;5002948;28;20148;-67
2023/10/04 04:08:21;;;;;;;1.30;0.95;;;24.30;53.50;;;;;;5000608;28;20117;-67
2023/10/04 04:10:47;;;;;;;1.48;1.02;;;24.30;53.50;;;;;;4999579;28;20037;-67
2023/10/04 04:13:13;;;;;;;1.48;0.98;;;24.30;53.50;;;;;;5001287;28;20038;-67
2023/10/04 04:15:39;;;;;;;1.05;0.80;;;24.30;53.50;;;;;;5001545;28;20540;-67
2023/10/04 04:18:13;;;;;;;1.02;0.75;;;24.30;53.50;;;;;;4999265;28;20049;-67
2023/10/04 04:20:41;;;;;;;1.45;0.95;;;24.30;53.50;;;;;;4999758;28;20068;-67
2023/10/04 04:23:08;;;;;;;1.42;0.93;;;24.30;53.50;;;;;;4998315;28;20041;-67
2023/10/04 04:25:38;;;;;;;1.13;0.90;;;24.30;53.50;;;;;;4999347;28;20093;-65
2023/10/04 04:28:04;;;;;;;1.35;0.95;;;24.30;53.50;;;;;;5000403;28;20076;-66
2023/10/04 04:30:31;;;;;;;1.60;1.08;;;24.30;53.40;;;;;;5000556;28;20481;-67
2023/10/04 04:32:57;;;;;;;1.52;1.00;;;24.30;53.40;;;;;;5000510;28;20026;-67
2023/10/04 04:37:57;;;;;;;1.60;1.00;;;24.30;53.40;;;;;;5000336;28;20040;-67
2023/10/04 04:40:30;;;;;;;1.50;1.00;;;24.30;53.40;;;;;;4998392;28;20026;-68
2023/10/04 04:43:02;;;;;;;1.75;0.93;;;24.30;53.40;;;;;;5001317;28;20097;-67
2023/10/04 04:45:28;;;;;;;1.38;0.95;;;24.30;53.40;;;;;;4999426;28;20514;-67
2023/10/04 04:47:55;;;;;;;1.27;0.82;;;24.30;53.90;;;;;;5000982;28;20026;-67
2023/10/04 04:50:24;;;;;;;1.42;0.93;;;24.30;53.40;;;;;;5014171;28;20041;-67
2023/10/04 04:52:51;;;;;;;1.50;1.10;;;24.30;53.40;;;;;;4999612;28;20037;-67
2023/10/04 04:55:16;;;;;;;1.08;0.90;;;24.30;53.40;;;;;;4998018;28;20512;-67
2023/10/04 04:57:42;;;;;;;1.60;1.10;;;24.20;53.30;;;;;;4998717;28;20057;-66
2023/10/04 05:00:42;;;;;;;1.25;0.82;;;24.20;53.30;;;;;;5001872;28;20453;-67
2023/10/04 05:03:01;;;;;;;1.10;0.90;;;24.20;53.30;;;;;;4998301;28;20397;-64
2023/10/04 05:05:29;;;;;;;1.33;0.90;;;24.20;53.30;;;;;;4997994;28;20022;-64
2023/10/04 05:07:55;;;;;;;1.15;0.80;;;24.20;53.30;;;;;;4999066;28;20030;-64
2023/10/04 05:10:25;;;;;;;1.60;0.90;;;24.20;53.30;;;;;;4998029;28;20397;-64
2023/10/04 05:12:52;;;;;;;1.48;1.00;;;24.20;53.40;;;;;;4999654;28;20034;-66
2023/10/04 05:15:31;;;;;;;1.60;1.00;;;24.20;53.40;;;;;;4999065;28;20505;-66
2023/10/04 05:18:11;;;;;;;1.17;1.00;;;24.20;53.40;;;;;;4998966;28;20035;-66
2023/10/04 05:20:38;;;;;;;1.10;0.85;;;24.20;53.40;;;;;;4997014;28;20073;-66
2023/10/04 05:23:04;;;;;;;1.38;0.90;;;24.20;53.40;;;;;;4999979;28;20478;-67
2023/10/04 05:25:30;;;;;;;1.20;0.80;;;24.20;53.40;;;;;;4997601;28;20693;-66
2023/10/04 05:28:06;;;;;;;1.13;0.80;;;24.20;53.40;;;;;;4999635;28;20916;-66
2023/10/04 05:30:33;;;;;;;1.10;0.82;;;24.10;53.40;;;;;;4998039;28;20041;-68
2023/10/04 05:32:58;;;;;;;1.48;1.00;;;24.20;53.40;;;;;;4997416;28;20041;-67
2023/10/04 05:35:26;;;;;;;1.40;1.00;;;24.10;53.60;;;;;;4996248;28;20026;-67
2023/10/04 05:37:51;;;;;;;1.38;1.00;;;24.10;53.50;;;;;;5000600;28;20026;-62
2023/10/04 05:40:23;;;;;;;1.30;0.90;;;24.10;53.50;;;;;;4996187;28;20127;-63
2023/10/04 05:42:49;;;;;;;1.40;0.90;;;24.10;53.50;;;;;;4999180;28;20029;-63
2023/10/04 05:45:16;;;;;;;1.60;1.00;;;24.10;53.50;;;;;;4999643;28;20100;-62
2023/10/04 05:47:42;;;;;;;1.17;0.73;;;24.10;53.50;;;;;;5000408;28;20022;-62
2023/10/04 05:50:10;;;;;;;1.30;0.90;;;24.10;53.50;;;;;;4997000;28;20037;-63
2023/10/04 05:52:39;;;;;;;1.45;0.95;;;24.10;53.50;;;;;;4997479;28;20462;-62
2023/10/04 05:55:08;;;;;;;;;;;24.10;53.50;;;;;;4997871;28;20033;-61
2023/10/04 05:57:37;;;;;;;1.00;0.80;;;24.10;53.50;;;;;;4998413;28;19909;-64
2023/10/04 06:02:55;;;;;;;1.13;0.90;;;24.10;53.50;;;;;;4999013;28;20042;-64
2023/10/04 06:05:27;;;;;;;1.23;0.90;;;24.10;53.50;;;;;;4998237;28;20105;-64
2023/10/04 06:07:54;;;;;;;1.10;0.85;;;24.10;53.50;;;;;;5002512;28;20137;-64
2023/10/04 06:10:21;;;;;;;1.35;0.82;;;24.10;53.50;;;;;;5000652;28;20378;-64
2023/10/04 06:12:47;;;;;;;1.30;1.00;;;24.10;53.50;;;;;;4999778;28;20031;-64
2023/10/04 06:15:16;;;;;;;1.52;1.00;;;24.10;53.50;;;;;;5003387;28;20077;-64
2023/10/04 06:17:43;;;;;;;1.10;0.80;;;24.10;53.50;;;;;;5004120;28;20041;-64
2023/10/04 06:20:28;;;;;;;1.05;0.80;;;24.10;53.60;;;;;;5000637;28;20061;-64
2023/10/04 06:22:56;;;;;;;1.52;1.00;;;24.10;53.60;;;;;;5003044;28;20037;-64
2023/10/04 06:25:24;;;;;;;1.45;0.80;;;24.10;53.60;;;;;;5000711;28;20034;-64
2023/10/04 06:27:54;;;;;;;1.60;0.82;;;24.00;53.50;;;;;;5001566;28;20916;-64
2023/10/04 06:30:22;;;;;;;1.42;0.80;;;24.00;53.50;;;;;;5001827;28;20122;-65
2023/10/04 06:32:52;;;;;;;1.25;0.90;;;24.00;53.50;;;;;;5000965;28;20478;-64
2023/10/04 06:35:22;;;;;;;1.13;0.80;;;24.00;53.50;;;;;;5002318;28;20026;-64
2023/10/04 06:37:51;;;;;;;1.60;0.80;;;24.00;53.50;;;;;;5000298;28;20082;-64
2023/10/04 06:40:21;;;;;;;1.60;0.90;;;24.00;53.60;;;;;;5004628;28;20034;-64
2023/10/04 06:42:49;;;;;;;1.30;0.80;;;24.00;53.60;;;;;;5003253;28;20085;-64
2023/10/04 06:45:16;;;;;;;1.05;0.80;;;24.00;53.60;;;;;;5002866;28;20034;-65
2023/10/04 06:47:44;;;;;;;1.42;0.88;;;24.00;53.60;;;;;;5002839;28;20033;-63
2023/10/04 06:50:13;;;;;;;1.77;1.00;;;24.00;53.60;;;;;;5001813;28;20372;-62
2023/10/04 06:52:47;;;;;;;1.80;1.10;;;24.00;53.60;;;;;;5000824;28;20493;-61
2023/10/04 06:55:13;;;;;;;1.27;0.80;;;24.00;53.60;;;;;;5001115;28;20462;-63
2023/10/04 06:57:39;;;;;;;1.65;0.93;;;24.00;53.60;;;;;;5000826;28;20486;-61
2023/10/04 07:00:15;;;;;;;0.95;0.77;;;23.90;53.60;;;;;;5000889;28;20497;-62
2023/10/04 07:02:58;;;;;;;1.05;0.75;;;23.90;53.60;;;;;;5001270;28;20137;-62
2023/10/04 07:05:29;;;;;;;1.30;0.70;;;24.00;53.60;;;;;;5001767;28;20045;-63
2023/10/04 07:07:56;;;;;;;1.27;0.80;;;23.90;53.60;;;;;;5003976;28;20108;-66
2023/10/04 07:10:24;;;;;;;1.35;1.02;;;23.90;53.50;;;;;;5000252;28;20030;-66
2023/10/04 07:12:56;;;;;;;1.27;0.90;;;23.90;53.50;;;;;;5001436;28;20056;-66
2023/10/04 07:15:36;;;;;;;1.15;0.88;;;23.90;53.50;;;;;;5001156;28;20508;-66
2023/10/04 07:18:10;;;;;;;1.40;0.80;;;23.90;53.50;;;;;;5000314;28;20037;-66
2023/10/04 07:20:36;;;;;;;1.40;0.82;;;23.90;53.60;;;;;;5001169;28;20026;-66
2023/10/04 07:23:07;;;;;;;1.85;0.80;;;23.90;53.50;;;;;;4999507;28;20033;-66
2023/10/04 07:25:41;;;;;;;1.08;0.80;;;23.90;53.50;;;;;;4999871;28;20479;-66
2023/10/04 07:28:09;;;;;;;1.30;0.90;;;23.90;53.50;;;;;;5000765;28;20486;-66
2023/10/04 07:30:35;;;;;;;2.92;1.20;;;23.90;53.50;;;;;;5000136;28;20023;-64
2023/10/04 07:33:02;;;;;;;1.63;0.80;;;23.90;53.50;;;;;;5003246;28;20045;-64
2023/10/04 07:35:28;;;;;;;1.30;0.90;;;23.90;53.50;;;;;;4998789;28;20470;-64
2023/10/04 07:37:56;;;;;;;1.73;1.00;;;23.90;53.50;;;;;;5000312;28;20035;-64
2023/10/04 07:40:23;;;;;;;1.55;0.90;;;23.90;53.50;;;;;;5000813;28;20080;-64
2023/10/04 07:42:53;;;;;;;1.90;0.80;;;23.90;54.10;;;;;;5000671;28;20026;-66
2023/10/04 07:45:20;;;;;;;1.40;0.80;;;23.90;53.50;;;;;;5000283;28;20397;-66
2023/10/04 07:47:46;;;;;;;1.45;1.05;;;23.90;53.50;;;;;;5002539;28;20029;-66
2023/10/04 07:50:15;;;;;;;1.75;0.82;;;23.90;53.50;;;;;;4998828;28;20022;-66
2023/10/04 07:52:43;;;;;;;1.27;0.80;;;23.90;53.50;;;;;;4999535;28;20042;-66
2023/10/04 07:55:14;;;;;;;1.80;0.93;;;23.90;53.50;;;;;;4999651;28;20261;-66
2023/10/04 07:57:42;;;;;;;1.42;0.90;;;23.90;54.00;;;;;;5000669;28;20109;-64
2023/10/04 08:00:14;;;;;;;1.37;0.90;;;23.90;53.50;;;;;;5001903;28;20040;-64
2023/10/04 08:02:46;;;;;;;0.85;0.75;;;23.90;53.50;;;;;;4998838;28;20465;-64
2023/10/04 08:05:13;;;;;;;1.63;1.00;;;23.90;53.50;;;;;;5000043;28;20445;-64
2023/10/04 08:07:39;;;;;;;1.20;0.90;;;23.90;53.50;;;;;;4999355;28;20771;-65
2023/10/04 08:10:05;;;;;;;1.65;0.93;;;23.90;53.50;;;;;;5001542;28;20033;-64
2023/10/04 08:12:30;;;;;;;1.33;0.90;;;23.90;53.50;;;;;;5001342;28;20585;-64
2023/10/04 08:15:00;;;;;;;1.80;1.00;;;23.80;53.40;;;;;;5003237;28;20092;-64
2023/10/04 08:17:26;;;;;;;1.73;0.90;;;23.80;53.40;;;;;;5002211;28;20026;-64
2023/10/04 08:19:52;;;;;;;1.80;0.90;;;23.80;53.40;;;;;;4999673;28;20348;-64
2023/10/04 08:22:17;;;;;;;1.50;0.90;;;23.90;53.50;;;;;;4999966;28;20038;-64
2023/10/04 08:24:46;;;;;;;1.58;0.95;;;23.80;53.40;;;;;;4999529;28;20041;-64
2023/10/04 08:27:12;;;;;;;2.08;1.00;;;23.90;53.50;;;;;;4998547;28;20026;-64
2023/10/04 08:29:37;;;;;;;1.85;1.05;;;23.80;53.40;;;;;;4999948;28;20038;-64
2023/10/04 08:32:03;;;;;;;1.90;1.00;;;23.80;53.40;;;;;;4999573;28;20018;-64
2023/10/04 08:34:29;;;;;;;1.38;0.82;;;23.90;53.40;;;;;;5000305;28;20022;-64
2023/10/04 08:36:56;;;;;;;1.90;1.10;;;23.80;53.40;;;;;;5000667;28;20030;-64
2023/10/04 08:39:22;;;;;;;1.70;1.00;;;23.80;53.40;;;;;;4999658;28;20029;-64
2023/10/04 08:41:48;;;;;;;1.73;1.02;;;23.80;53.40;;;;;;4998799;28;20502;-64
2023/10/04 08:44:14;;;;;;;1.88;1.17;;;23.90;53.50;;;;;;5000054;28;20048;-64
2023/10/04 08:46:44;;;;;;;1.60;0.90;;;23.80;53.40;;;;;;5000230;28;20022;-64
2023/10/04 08:49:10;;;;;;;2.50;1.00;;;23.80;53.40;;;;;;5001815;28;20122;-64
2023/10/04 08:52:09;;;;;;;1.50;1.00;;;23.80;53.40;;;;;;4998230;28;20104;-64
2023/10/04 08:54:36;;;;;;;1.58;1.00;;;23.80;53.40;;;;;;4989227;28;20042;-64
2023/10/04 08:57:09;;;;;;;1.70;0.90;;;23.80;53.40;;;;;;4999470;28;20033;-65
2023/10/04 08:59:35;;;;;;;1.20;0.90;;;23.90;53.50;;;;;;4999004;28;20125;-64
2023/10/04 09:02:02;;;;;;;1.52;1.05;;;23.80;53.40;;;;;;5000442;28;20033;-64
2023/10/04 09:04:29;;;;;;;2.25;1.10;;;23.80;53.50;;;;;;5001263;28;20034;-64
2023/10/04 09:06:55;;;;;;;3.20;1.15;;;23.80;53.50;;;;;;5000470;28;20393;-62
2023/10/04 09:09:20;;;;;;;2.45;1.00;;;23.80;53.50;;;;;;4998158;28;20057;-62
2023/10/04 09:11:46;;;;;;;1.23;0.80;;;23.80;53.50;;;;;;4997820;28;20030;-61
2023/10/04 09:14:14;;;;;;;1.67;0.95;;;23.80;53.50;;;;;;4998630;28;20045;-63
2023/10/04 09:16:40;;;;;;;1.65;1.10;;;23.80;53.50;;;;;;5001134;28;20028;-62
2023/10/04 09:19:18;;;;;;;1.30;0.90;;;23.80;53.50;;;;;;5000644;28;20029;-63
2023/10/04 09:21:44;;;;;;;1.35;0.98;;;23.80;53.50;;;;;;5000017;28;20045;-61
2023/10/04 09:24:12;;;;;;;1.88;1.17;;;23.80;54.00;;;;;;5006231;28;20039;-63
2023/10/04 09:26:49;;;;;;;2.05;1.00;;;23.80;53.50;;;;;;4998046;28;20052;-67
2023/10/04 09:29:27;;;;;;;2.22;0.95;;;23.90;53.50;;;;;;4998044;28;20030;-67
2023/10/04 09:31:55;;;;;;;1.45;0.90;;;23.80;53.50;;;;;;4998449;28;20422;-67
2023/10/04 09:34:24;;;;;;;1.70;1.10;;;23.80;53.50;;;;;;4998596;28;20030;-67
2023/10/04 09:36:52;;;;;;;1.52;0.85;;;23.80;53.50;;;;;;4998836;28;20091;-66
2023/10/04 09:39:23;;;;;;;1.88;1.10;;;23.80;53.50;;;;;;5000044;28;20053;-67
2023/10/04 09:41:50;;;;;;;2.08;1.17;;;23.80;53.50;;;;;;4996670;28;20108;-67
2023/10/04 09:44:30;;;;;;;1.50;1.00;;;23.80;53.50;;;;;;4997847;28;20030;-67
2023/10/04 09:47:00;;;;;;;1.33;0.93;;;23.80;53.50;;;;;;4998286;28;20099;-67
2023/10/04 09:49:37;;;;;;;1.67;0.95;;;23.80;53.50;;;;;;4999939;28;20026;-67
2023/10/04 09:52:07;;;;;;;1.55;1.05;;;23.80;53.50;;;;;;4996465;28;20490;-67
2023/10/04 09:54:36;;;;;;;2.13;1.10;;;23.90;53.60;;;;;;4998634;28;20030;-68
2023/10/04 09:57:06;;;;;;;1.77;1.00;;;23.80;53.50;;;;;;4996934;28;20022;-67
2023/10/04 09:59:34;;;;;;;1.77;1.00;;;23.80;53.50;;;;;;4997932;28;20489;-67
2023/10/04 10:02:01;;;;;;;1.52;1.05;;;23.80;53.50;;;;;;4999034;28;20478;-67
2023/10/04 10:04:28;;;;;;;2.10;1.20;;;23.80;53.50;;;;;;4996329;28;20558;-68
2023/10/04 10:07:06;;;;;;;1.15;0.93;;;23.80;53.50;;;;;;4999762;28;20653;-67
2023/10/04 10:09:34;;;;;;;1.83;1.10;;;23.90;53.60;;;;;;4998085;28;20247;-66
2023/10/04 10:12:02;;;;;;;2.47;1.07;;;23.80;53.50;;;;;;4996063;28;20022;-67
2023/10/04 10:14:30;;;;;;;1.65;1.00;;;23.80;53.40;;;;;;5012803;28;20164;-67
2023/10/04 10:16:57;;;;;;;2.10;1.10;;;23.80;53.40;;;;;;5000343;28;20022;-66
2023/10/04 10:19:23;;;;;;;1.92;1.15;;;23.80;53.30;;;;;;5000116;28;20482;-66
2023/10/04 10:22:19;;;;;;;1.50;0.90;;;23.80;53.20;;;;;;4996794;28;20026;-66
2023/10/04 10:25:13;;;;;;;2.00;1.20;;;23.80;53.10;;;;;;4995871;28;20132;-66
2023/10/04 10:27:39;;;;;;;1.55;1.00;;;23.90;53.10;;;;;;4996745;28;20029;-67
2023/10/04 10:30:07;;;;;;;2.20;1.20;;;23.80;53.00;;;;;;4997500;28;20129;-67
2023/10/04 10:32:33;;;;;;;1.45;1.08;;;23.80;53.00;;;;;;4998611;28;20026;-67
2023/10/04 10:35:08;;;;;;;2.00;1.10;;;23.80;52.90;;;;;;4998421;28;20034;-67
2023/10/04 10:37:38;;;;;;;1.55;1.00;;;23.80;52.80;;;;;;4997643;28;20030;-62
2023/10/04 10:40:09;;;;;;;2.00;1.10;;;23.80;52.70;;;;;;4997209;28;20033;-62
2023/10/04 10:43:07;;;;;;;1.58;1.00;;;23.80;52.60;;;;;;4996722;28;20034;-61
2023/10/04 10:45:33;;;;;;;1.93;1.10;;;23.80;52.50;;;;;;4998206;28;20030;-61
2023/10/04 10:48:00;;;;;;;1.75;1.17;;;23.80;52.50;;;;;;4997730;28;20312;-63
2023/10/04 10:50:40;;;;;;;1.65;1.08;;;23.90;52.50;;;;;;4996841;28;20029;-62
2023/10/04 10:53:10;;;;;;;1.83;1.00;;;23.90;52.40;;;;;;5001482;28;20125;-62
2023/10/04 10:55:38;;;;;;;1.63;1.00;;;23.80;52.40;;;;;;5000766;28;20129;-61
2023/10/04 10:58:04;;;;;;;2.33;1.30;;;23.80;52.40;;;;;;5002590;28;20482;-63
2023/10/04 11:00:33;;;;;;;1.73;1.00;;;23.80;52.30;;;;;;5003069;28;20048;-63
2023/10/04 11:03:00;;;;;;;2.10;1.10;;;23.80;52.30;;;;;;5001524;28;20630;-62
2023/10/04 11:05:26;;;;;;;1.65;1.10;;;23.80;52.30;;;;;;5000422;28;20505;-61
2023/10/04 11:07:54;;;;;;;3.10;1.30;;;23.80;52.30;;;;;;5000260;28;20028;-63
2023/10/04 11:10:21;;;;;;;1.95;1.00;;;23.80;52.30;;;;;;5002264;28;20149;-62
2023/10/04 11:12:47;;;;;;;2.10;1.02;;;23.80;52.20;;;;;;4998585;28;20027;-63
2023/10/04 11:15:17;;;;;;;1.98;1.10;;;23.80;52.20;;;;;;5003355;28;20033;-62
2023/10/04 11:17:43;;;;;;;2.20;1.08;;;23.80;52.20;;;;;;5001377;28;20062;-63
2023/10/04 11:20:11;;;;;;;1.85;1.02;;;23.80;52.20;;;;;;5001483;28;20052;-62
2023/10/04 11:22:38;;;;;;;1.77;1.08;;;23.80;52.20;;;;;;5001173;28;20101;-63
2023/10/04 11:25:05;;;;;;;1.60;0.93;;;23.80;52.20;;;;;;4999734;28;20041;-64
2023/10/04 11:27:32;;;;;;;2.15;1.13;;;23.80;52.20;;;;;;5001671;28;20021;-67
2023/10/04 11:29:59;;;;;;;2.10;1.17;;;23.80;52.20;;;;;;5001713;28;20061;-67
2023/10/04 11:32:28;;;;;;;2.28;1.00;;;23.80;52.70;;;;;;5003308;28;20414;-66
2023/10/04 11:34:56;;;;;;;1.92;1.00;;;23.80;52.20;;;;;;5002636;28;20088;-68
2023/10/04 11:37:27;;;;;;;1.55;1.13;;;23.80;52.10;;;;;;5008360;28;20030;-67
2023/10/04 11:39:54;;;;;;;1.83;1.00;;;23.80;52.10;;;;;;5000097;28;20569;-67
2023/10/04 11:42:22;;;;;;;1.20;0.90;;;23.80;52.20;;;;;;5000198;28;20530;-67
2023/10/04 11:44:48;;;;;;;1.80;1.10;;;23.80;52.20;;;;;;4999702;28;20040;-68
2023/10/04 11:47:25;;;;;;;2.35;1.00;;;23.80;52.10;;;;;;5002837;28;20030;-64
2023/10/04 11:50:07;;;;;;;1.63;1.00;;;23.80;52.10;;;;;;4999274;28;20422;-64
2023/10/04 11:52:33;;;;;;;1.80;1.10;;;23.80;52.10;;;;;;5000586;28;20402;-65
2023/10/04 11:55:00;;;;;;;1.60;1.00;;;23.80;52.10;;;;;;5001680;28;20018;-64
2023/10/04 11:57:28;;;;;;;1.98;1.10;;;23.80;52.10;;;;;;4999628;28;20036;-64
2023/10/04 11:59:57;;;;;;;2.25;1.20;;;23.80;52.10;;;;;;5000927;28;20505;-64
2023/10/04 12:02:26;;;;;;;1.73;1.10;;;23.80;52.10;;;;;;5000034;28;20057;-65
2023/10/04 12:04:52;;;;;;;1.58;1.08;;;23.80;52.10;;;;;;4998041;28;20066;-65
2023/10/04 12:07:18;;;;;;;1.80;1.00;;;23.80;52.10;;;;;;5001559;28;20561;-64
2023/10/04 12:09:44;;;;;;;1.50;1.00;;;23.80;52.10;;;;;;5002382;28;20022;-64
2023/10/04 12:12:16;;;;;;;2.00;1.00;;;23.80;52.10;;;;;;5001119;28;20389;-66
2023/10/04 12:14:42;;;;;;;1.75;1.00;;;23.80;52.10;;;;;;5001384;28;20429;-64
2023/10/04 12:17:08;;;;;;;1.80;1.10;;;23.80;52.10;;;;;;5001115;28;20022;-64
2023/10/04 12:19:35;;;;;;;1.92;1.02;;;23.80;52.10;;;;;;5000200;28;20134;-64
2023/10/04 12:22:08;;;;;;;1.50;1.00;;;23.80;52.10;;;;;;4999338;28;20045;-65
2023/10/04 12:24:38;;;;;;;1.75;1.00;;;23.80;52.10;;;;;;5000986;28;20041;-64
2023/10/04 12:27:08;;;;;;;1.48;0.95;;;23.80;52.10;;;;;;5000240;28;20026;-64
2023/10/04 12:29:35;;;;;;;3.50;1.10;;;23.80;52.10;;;;;;4998972;28;20018;-64
2023/10/04 12:32:00;;;;;;;1.52;1.00;;;23.80;52.10;;;;;;5000508;28;20165;-64
2023/10/04 12:34:27;;;;;;;2.80;1.10;;;23.80;52.10;;;;;;5001370;28;20026;-64
2023/10/04 12:36:53;;;;;;;1.50;1.10;;;23.80;52.20;;;;;;4999548;28;20101;-63
2023/10/04 12:39:21;;;;;;;1.35;0.88;;;23.80;52.10;;;;;;5000303;28;20133;-62
2023/10/04 12:41:50;;;;;;;1.58;0.82;;;23.80;52.10;;;;;;4998920;28;20018;-63
2023/10/04 12:44:19;;;;;;;1.67;0.88;;;23.80;52.10;;;;;;4998174;28;20048;-62
2023/10/04 12:46:47;;;;;;;1.60;1.10;;;23.80;52.10;;;;;;4998662;28;20196;-63
2023/10/04 12:49:13;;;;;;;1.50;0.95;;;23.80;52.20;;;;;;4998825;28;20657;-63
2023/10/04 12:51:39;;;;;;;1.50;0.90;;;23.80;52.20;;;;;;4999758;28;20517;-62
2023/10/04 12:54:06;;;;;;;1.50;0.90;;;23.80;52.10;;;;;;4997852;28;20026;-64
2023/10/04 12:56:31;;;;;;;1.33;0.90;;;23.80;52.20;;;;;;4998864;28;20023;-62
2023/10/04 12:58:57;;;;;;;1.65;1.00;;;23.80;52.20;;;;;;4997490;28;20371;-62
2023/10/04 13:01:22;;;;;;;1.38;0.90;;;23.80;52.20;;;;;;4998711;28;20068;-62